createdAt,value
2023-01-09T06:33:38.571Z,47.69
2023-01-09T06:35:38.543Z,53.92
2023-01-09T06:36:38.526Z,56.83
2023-01-09T06:37:38.523Z,57.13
2023-01-09T06:38:38.505Z,59.63
2023-01-09T06:40:38.489Z,60.87
2023-01-09T06:41:38.481Z,60.52
2023-01-09T06:42:38.477Z,55.25
2023-01-09T06:43:38.464Z,164.66
2023-01-09T06:45:38.447Z,95.66
2023-01-09T06:46:38.488Z,500.00
2023-01-09T06:47:38.988Z,500.00
2023-01-09T06:49:38.425Z,500.00
2023-01-09T06:50:38.403Z,500.00
2023-01-09T06:51:38.392Z,445.80
2023-01-09T06:52:38.388Z,355.21
2023-01-09T06:54:38.381Z,268.05
2023-01-09T06:55:38.355Z,235.04
2023-01-09T06:56:38.345Z,216.25
2023-01-09T07:00:38.334Z,186.29
2023-01-09T07:01:38.405Z,176.18
2023-01-09T07:02:38.325Z,161.73
2023-01-09T07:04:38.268Z,139.74
2023-01-09T07:05:38.264Z,133.05
2023-01-09T07:06:38.250Z,125.18
2023-01-09T07:07:38.240Z,118.13
2023-01-09T07:09:38.244Z,107.95
2023-01-09T07:10:38.218Z,105.71
2023-01-09T07:11:38.204Z,104.93
2023-01-09T07:12:38.197Z,105.15
2023-01-09T07:13:38.211Z,100.66
2023-01-09T07:14:38.176Z,96.51
2023-01-09T07:15:38.196Z,95.69
2023-01-09T07:16:38.155Z,92.01
2023-01-09T07:18:38.186Z,86.87
2023-01-09T07:19:38.141Z,84.62
2023-01-09T07:20:38.125Z,82.99
2023-01-09T07:21:38.124Z,79.13
2023-01-09T07:22:38.107Z,78.13
2023-01-09T07:23:38.091Z,74.64
2023-01-09T07:24:38.333Z,72.99
2023-01-09T07:25:38.075Z,70.74
2023-01-09T07:26:38.084Z,70.73
2023-01-09T07:27:38.060Z,70.18
2023-01-09T07:28:38.049Z,69.50
2023-01-09T07:29:38.039Z,66.04
2023-01-09T07:30:38.036Z,65.57
2023-01-09T07:31:38.104Z,63.68
2023-01-09T07:32:38.018Z,64.01
2023-01-09T07:33:38.010Z,60.88
2023-01-09T07:34:38.032Z,61.11
2023-01-09T07:35:37.986Z,62.81
2023-01-09T07:36:37.979Z,58.84
2023-01-09T07:37:37.982Z,58.75
2023-01-09T07:38:37.967Z,57.24
2023-01-09T07:39:37.949Z,56.97
2023-01-09T07:40:37.948Z,54.80
2023-01-09T07:41:37.937Z,53.57
2023-01-09T07:42:37.921Z,53.21
2023-01-09T07:43:38.338Z,53.67
2023-01-09T07:44:37.900Z,52.45
2023-01-09T07:45:37.899Z,52.21
2023-01-09T07:46:38.468Z,52.20
2023-01-09T07:47:37.875Z,51.09
2023-01-09T07:48:38.346Z,51.07
2023-01-09T07:49:37.867Z,49.93
2023-01-09T07:50:37.893Z,47.81
2023-01-09T07:51:37.852Z,47.77
2023-01-09T07:53:37.834Z,47.17
2023-01-09T07:54:37.815Z,47.20
2023-01-09T07:55:37.822Z,46.80
2023-01-09T07:56:37.796Z,47.02
2023-01-09T07:57:37.787Z,47.04
2023-01-09T07:58:37.782Z,47.74
2023-01-09T07:59:37.796Z,47.73
2023-01-09T08:00:37.880Z,47.12
2023-01-09T08:01:37.915Z,46.66
2023-01-09T08:02:37.767Z,46.23
2023-01-09T08:03:37.731Z,45.22
2023-01-09T08:04:37.852Z,47.27
2023-01-09T08:05:37.848Z,44.84
2023-01-09T08:06:37.730Z,46.35
2023-01-09T08:07:37.701Z,45.08
2023-01-09T08:08:37.697Z,44.24
2023-01-09T08:09:37.676Z,43.67
2023-01-09T08:10:37.851Z,44.19
2023-01-09T08:11:38.240Z,42.71
2023-01-09T08:12:37.652Z,44.55
2023-01-09T08:13:37.851Z,43.88
2023-01-09T08:14:37.850Z,42.46
2023-01-09T08:15:37.732Z,42.38
2023-01-09T08:19:37.853Z,44.02
2023-01-09T08:22:37.656Z,43.45
2023-01-09T08:24:37.853Z,42.46
2023-01-09T08:34:37.888Z,39.86
2023-01-09T08:39:37.871Z,41.92
2023-01-09T08:44:37.864Z,56.14
2023-01-09T10:18:37.823Z,87.21
2023-01-09T10:59:51.741Z,84.41
2023-01-09T11:30:39.046Z,80.99
2023-01-09T19:54:31.280Z,40.18
2023-01-09T19:55:31.269Z,39.46
2023-01-09T19:56:31.269Z,39.20
2023-01-09T19:57:31.251Z,40.03
2023-01-09T19:58:31.241Z,40.97
2023-01-09T19:59:31.231Z,40.11
2023-01-09T20:00:31.221Z,40.84
2023-01-09T20:01:31.327Z,40.84
2023-01-09T20:02:31.204Z,37.89
2023-01-09T20:03:31.199Z,37.81
2023-01-09T20:04:31.185Z,39.79
2023-01-09T20:05:31.176Z,41.57
2023-01-09T20:06:31.188Z,40.28
2023-01-09T20:07:31.156Z,39.31
2023-01-09T20:08:31.151Z,40.55
2023-01-09T20:09:31.140Z,38.29
2023-01-09T20:10:31.130Z,40.70
2023-01-09T20:11:31.131Z,40.37
2023-01-09T20:12:31.111Z,40.76
2023-01-09T20:13:31.132Z,40.21
2023-01-09T20:14:31.104Z,40.35
2023-01-09T20:15:31.088Z,38.88
2023-01-09T20:16:31.282Z,40.65
2023-01-09T20:17:31.062Z,39.61
2023-01-09T20:18:31.082Z,39.38
2023-01-09T20:19:31.050Z,38.96
2023-01-09T20:20:31.045Z,39.22
2023-01-09T20:21:31.032Z,39.07
2023-01-09T22:22:29.928Z,34.86
2023-01-09T22:23:29.916Z,31.60
2023-01-09T22:24:29.902Z,34.33
2023-01-09T22:25:29.931Z,33.34
2023-01-09T22:26:29.884Z,33.22
2023-01-09T22:27:29.913Z,33.31
2023-01-09T22:28:29.867Z,35.18
2023-01-09T22:29:29.861Z,33.90
2023-01-09T22:30:29.880Z,31.40
2023-01-09T22:31:29.904Z,33.66
2023-01-09T22:32:29.829Z,32.80
2023-01-09T22:33:29.834Z,32.10
2023-01-09T22:34:29.822Z,32.58
2023-01-09T22:35:29.813Z,32.96
2023-01-09T22:36:29.800Z,33.16
2023-01-09T22:37:29.792Z,32.00
2023-01-09T22:51:29.655Z,32.63
2023-01-09T22:52:29.644Z,34.36
2023-01-09T22:53:29.638Z,32.02
2023-01-09T22:54:29.626Z,32.73
2023-01-09T22:55:29.634Z,31.73
2023-01-09T22:56:29.615Z,32.01
2023-01-09T22:57:29.601Z,33.27
2023-01-09T22:58:29.589Z,32.32
2023-01-09T22:59:32.069Z,32.09
2023-01-09T23:00:29.577Z,32.27
2023-01-09T23:01:29.564Z,32.53
2023-01-09T23:02:29.712Z,32.50
2023-01-09T23:03:29.556Z,33.04
2023-01-09T23:04:29.538Z,34.25
2023-01-09T23:05:29.529Z,33.04
2023-01-09T23:06:29.519Z,33.57
2023-01-09T23:07:29.509Z,32.60
2023-01-09T23:08:29.499Z,32.88
2023-01-09T23:09:29.492Z,30.28
2023-01-09T23:10:29.481Z,32.15
2023-01-09T23:11:29.471Z,32.23
2023-01-09T23:12:29.465Z,32.26
2023-01-09T23:13:29.455Z,32.08
2023-01-09T23:14:29.446Z,31.72
2023-01-09T23:15:29.438Z,33.02
2023-01-09T23:16:29.466Z,33.70
2023-01-09T23:17:29.415Z,32.08
2023-01-09T23:18:29.437Z,34.34
2023-01-09T23:19:29.400Z,32.20
2023-01-09T23:20:29.389Z,31.58
2023-01-09T23:21:29.383Z,31.58
2023-01-09T23:22:29.374Z,32.27
2023-01-09T23:23:29.364Z,32.26
2023-01-09T23:24:29.356Z,32.47
2023-01-09T23:25:29.355Z,30.94
2023-01-09T23:26:29.333Z,32.46
2023-01-09T23:27:29.333Z,31.35
2023-01-09T23:28:29.318Z,30.62
2023-01-09T23:29:29.306Z,26.96
2023-01-09T23:30:29.295Z,31.79
2023-01-09T23:31:29.340Z,29.18
2023-01-09T23:32:29.281Z,31.10
2023-01-09T23:33:29.300Z,33.40
2023-01-09T23:34:29.290Z,32.96
2023-01-09T23:35:29.251Z,31.94
2023-01-09T23:36:29.251Z,33.32
2023-01-09T23:37:29.233Z,30.94
2023-01-09T23:38:29.226Z,30.33
2023-01-09T23:39:29.251Z,32.18
2023-01-09T23:40:29.214Z,30.55
2023-01-09T23:41:29.198Z,30.27
2023-01-09T23:42:29.186Z,34.02
2023-01-09T23:43:29.177Z,30.47
2023-01-09T23:44:29.187Z,30.66
2023-01-09T23:45:29.239Z,29.81
2023-01-09T23:46:29.149Z,31.82
2023-01-09T23:47:29.143Z,31.99
2023-01-09T23:48:29.133Z,32.67
2023-01-09T23:49:29.131Z,30.69
2023-01-09T23:50:29.140Z,31.15
2023-01-09T23:51:29.115Z,31.11
2023-01-09T23:52:29.096Z,29.82
2023-01-09T23:53:29.086Z,28.60
2023-01-09T23:54:29.077Z,30.19
2023-01-09T23:55:29.072Z,32.34
2023-01-09T23:56:29.061Z,29.77
2023-01-09T23:57:29.053Z,31.07
2023-01-09T23:58:29.040Z,31.33
2023-01-09T23:59:29.040Z,30.57
